createdAt,value
2022-08-04T00:02:00.834Z,95262.00
2022-08-04T00:04:55.920Z,95263.80
2022-08-04T00:08:09.975Z,95254.40
2022-08-04T00:10:40.501Z,95258.00
2022-08-04T00:13:08.516Z,95254.00
2022-08-04T00:15:37.476Z,95254.60
2022-08-04T00:18:08.238Z,95254.80
2022-08-04T00:20:41.045Z,95258.60
2022-08-04T00:23:09.375Z,95254.00
2022-08-04T00:25:41.540Z,95252.60
2022-08-04T00:28:09.257Z,95256.60
2022-08-04T00:30:36.553Z,95256.00
2022-08-04T00:33:03.805Z,95256.20
2022-08-04T00:35:33.072Z,95259.00
2022-08-04T00:38:00.294Z,95252.80
2022-08-04T00:41:17.904Z,95251.00
2022-08-04T00:44:10.424Z,95249.20
2022-08-04T00:47:00.783Z,95246.60
2022-08-04T00:49:45.541Z,95246.80
2022-08-04T00:52:45.267Z,95248.40
2022-08-04T00:55:33.830Z,95247.40
2022-08-04T00:58:16.557Z,95247.60
2022-08-04T01:01:04.045Z,95249.20
2022-08-04T01:04:04.883Z,95250.20
2022-08-04T01:06:40.653Z,95250.20
2022-08-04T01:09:28.099Z,95251.00
2022-08-04T01:12:19.176Z,95252.60
2022-08-04T01:15:06.818Z,95255.00
2022-08-04T01:17:36.298Z,95251.00
2022-08-04T01:20:11.160Z,95251.60
2022-08-04T01:23:26.814Z,95250.60
2022-08-04T01:26:41.950Z,95250.20
2022-08-04T01:29:16.344Z,95247.40
2022-08-04T01:32:04.551Z,95251.00
2022-08-04T01:34:42.705Z,95250.20
2022-08-04T01:37:25.783Z,95248.00
2022-08-04T01:40:04.597Z,95248.60
2022-08-04T01:42:34.356Z,95249.20
2022-08-04T01:45:08.255Z,95246.20
2022-08-04T01:47:38.062Z,95246.60
2022-08-04T01:50:09.549Z,95249.00
2022-08-04T01:52:39.120Z,95248.40
2022-08-04T01:55:10.141Z,95248.80
2022-08-04T01:57:52.261Z,95250.40
2022-08-04T02:00:23.997Z,95249.20
2022-08-04T02:02:51.856Z,95250.20
2022-08-04T02:05:22.922Z,95248.00
2022-08-04T02:08:36.174Z,95252.60
2022-08-04T02:11:19.060Z,95255.20
2022-08-04T02:14:08.804Z,95253.40
2022-08-04T02:16:52.437Z,95244.80
2022-08-04T02:19:50.963Z,95252.80
2022-08-04T02:22:19.264Z,95251.00
2022-08-04T02:24:50.552Z,95250.60
2022-08-04T02:27:29.654Z,95249.00
2022-08-04T02:30:18.486Z,95247.40
2022-08-04T02:32:49.168Z,95243.40
2022-08-04T02:35:22.024Z,95247.80
2022-08-04T02:38:06.879Z,95246.20
2022-08-04T02:40:34.454Z,95249.40
2022-08-04T02:43:04.327Z,95251.60
2022-08-04T02:45:36.924Z,95248.40
2022-08-04T02:48:28.847Z,95245.40
2022-08-04T02:50:54.511Z,95246.00
2022-08-04T02:53:25.760Z,95242.60
2022-08-04T02:55:56.639Z,95239.00
2022-08-04T02:58:26.385Z,95240.20
2022-08-04T03:00:53.095Z,95239.40
2022-08-04T03:04:24.461Z,95237.00
2022-08-04T03:07:31.679Z,95236.40
2022-08-04T03:10:17.103Z,95228.80
2022-08-04T03:13:37.211Z,95226.60
2022-08-04T03:17:06.277Z,95229.00
2022-08-04T03:20:00.835Z,95231.40
2022-08-04T03:23:12.047Z,95228.00
2022-08-04T03:25:56.509Z,95228.60
2022-08-04T03:29:36.773Z,95229.40
2022-08-04T03:32:41.888Z,95232.20
2022-08-04T03:36:00.239Z,95235.80
2022-08-04T03:39:07.633Z,95239.60
2022-08-04T03:42:14.240Z,95239.20
2022-08-04T03:45:38.558Z,95239.20
2022-08-04T03:48:44.752Z,95235.40
2022-08-04T03:51:36.643Z,95234.60
2022-08-04T03:54:28.728Z,95237.80
2022-08-04T03:57:20.037Z,95236.20
2022-08-04T04:00:09.406Z,95240.20
2022-08-04T04:03:00.170Z,95239.80
2022-08-04T04:05:59.819Z,95242.80
2022-08-04T04:09:08.095Z,95240.60
2022-08-04T04:12:24.992Z,95240.80
2022-08-04T04:15:14.741Z,95243.80
2022-08-04T04:18:13.911Z,95243.60
2022-08-04T04:21:11.825Z,95243.40
2022-08-04T04:23:56.682Z,95242.00
2022-08-04T04:27:10.191Z,95248.20
2022-08-04T04:29:52.037Z,95247.60
2022-08-04T04:32:23.987Z,95243.40
2022-08-04T04:35:12.544Z,95244.40
2022-08-04T04:38:36.188Z,95243.20
2022-08-04T04:41:26.204Z,95243.40
2022-08-04T04:44:30.559Z,95244.80
2022-08-04T04:47:43.049Z,95250.20
2022-08-04T04:50:32.548Z,95249.20
2022-08-04T04:53:25.767Z,95252.80
2022-08-04T04:56:06.036Z,95257.80
2022-08-04T04:58:35.375Z,95260.00
2022-08-04T05:01:30.445Z,95261.40
2022-08-04T05:04:08.535Z,95265.60
2022-08-04T05:06:56.865Z,95266.20
2022-08-04T05:09:54.938Z,95268.40
2022-08-04T05:13:05.235Z,95265.60
2022-08-04T05:15:29.280Z,95263.80
2022-08-04T05:17:59.859Z,95260.80
2022-08-04T05:20:34.962Z,95256.00
2022-08-04T05:23:13.582Z,95255.00
2022-08-04T05:25:58.489Z,95259.40
2022-08-04T05:28:54.869Z,95252.80
2022-08-04T05:31:37.526Z,95254.80
2022-08-04T05:34:24.315Z,95255.40
2022-08-04T05:36:56.602Z,95249.80
2022-08-04T05:39:32.312Z,95254.40
2022-08-04T05:42:04.364Z,95258.00
2022-08-04T05:44:34.046Z,95255.60
2022-08-04T05:47:04.197Z,95256.00
2022-08-04T05:49:32.947Z,95253.20
2022-08-04T05:52:03.099Z,95253.40
2022-08-04T05:54:34.978Z,95249.60
2022-08-04T05:57:05.112Z,95248.00
2022-08-04T05:59:34.451Z,95255.00
2022-08-04T06:02:03.062Z,95250.20
2022-08-04T06:04:39.954Z,95252.40
2022-08-04T06:07:08.085Z,95245.00
2022-08-04T06:09:35.040Z,95232.80
2022-08-04T06:12:09.323Z,95231.20
2022-08-04T06:14:44.636Z,95229.40
2022-08-04T06:18:32.362Z,95230.00
2022-08-04T06:20:19.956Z,95226.60
2022-08-04T06:22:59.324Z,95231.40
2022-08-04T06:25:33.499Z,95234.60
2022-08-04T06:28:02.265Z,95232.60
2022-08-04T06:30:32.676Z,95233.40
2022-08-04T06:33:05.169Z,95234.00
2022-08-04T06:35:33.798Z,95233.00
2022-08-04T06:38:02.077Z,95235.40
2022-08-04T06:40:33.319Z,95237.00
2022-08-04T06:43:06.990Z,95232.80
2022-08-04T06:45:38.184Z,95230.00
2022-08-04T06:48:07.043Z,95233.60
2022-08-04T06:51:32.066Z,95236.00
2022-08-04T06:53:26.347Z,95237.00
2022-08-04T06:55:54.912Z,95237.40
2022-08-04T06:58:23.325Z,95243.00
2022-08-04T07:00:51.670Z,95243.80
2022-08-04T07:03:21.915Z,95251.60
2022-08-04T07:05:50.072Z,95249.20
2022-08-04T07:08:17.185Z,95248.00
2022-08-04T07:10:45.244Z,95249.20
2022-08-04T07:13:13.371Z,95251.00
2022-08-04T07:15:45.431Z,95249.60
2022-08-04T07:18:12.256Z,95251.20
2022-08-04T07:20:46.480Z,95259.00
2022-08-04T07:23:19.787Z,95256.20
2022-08-04T07:26:11.896Z,95262.20
2022-08-04T07:28:41.781Z,95263.40
2022-08-04T07:31:34.572Z,95266.00
2022-08-04T07:34:17.009Z,95267.20
2022-08-04T07:36:52.765Z,95275.40
2022-08-04T07:39:28.743Z,95274.00
2022-08-04T07:42:02.306Z,95275.00
2022-08-04T07:44:34.041Z,95277.80
2022-08-04T07:47:07.096Z,95272.60
2022-08-04T07:49:55.964Z,95277.60
2022-08-04T07:52:22.695Z,95277.20
2022-08-04T07:54:51.719Z,95272.00
2022-08-04T07:57:41.299Z,95267.20
2022-08-04T08:00:08.801Z,95260.00
2022-08-04T08:02:43.801Z,95257.00
2022-08-04T08:05:13.952Z,95252.60
2022-08-04T08:07:50.481Z,95253.00
2022-08-04T08:10:21.871Z,95260.20
2022-08-04T08:12:52.317Z,95256.60
2022-08-04T08:15:20.646Z,95263.60
2022-08-04T08:17:57.709Z,95263.20
2022-08-04T08:20:31.447Z,95264.20
2022-08-04T08:23:01.435Z,95260.80
2022-08-04T08:25:30.367Z,95261.60
2022-08-04T08:27:57.037Z,95265.00
2022-08-04T08:30:31.866Z,95261.40
2022-08-04T08:33:07.959Z,95263.00
2022-08-04T08:35:56.855Z,95260.40
2022-08-04T08:39:01.706Z,95259.40
2022-08-04T08:42:02.212Z,95260.80
2022-08-04T08:45:17.697Z,95262.00
2022-08-04T08:48:22.913Z,95262.40
2022-08-04T08:51:47.539Z,95258.80
2022-08-04T08:54:21.464Z,95260.80
2022-08-04T08:57:00.459Z,95264.20
2022-08-04T09:00:10.541Z,95265.60
2022-08-04T09:02:46.319Z,95265.40
2022-08-04T09:05:47.260Z,95268.80
2022-08-04T09:08:31.862Z,95268.20
2022-08-04T09:11:20.334Z,95268.20
2022-08-04T09:14:01.511Z,95270.80
2022-08-04T09:16:42.803Z,95271.60
2022-08-04T09:19:39.054Z,95267.00
2022-08-04T09:22:15.331Z,95268.40
2022-08-04T09:24:58.725Z,95264.00
2022-08-04T09:27:55.674Z,95266.80
2022-08-04T09:30:33.248Z,95268.20
2022-08-04T09:33:45.540Z,95262.00
2022-08-04T09:36:38.055Z,95270.00
2022-08-04T09:39:30.797Z,95266.20
2022-08-04T09:42:38.298Z,95265.40
2022-08-04T09:45:26.025Z,95270.60
2022-08-04T09:48:01.447Z,95270.00
2022-08-04T09:50:49.951Z,95266.20
2022-08-04T09:53:50.436Z,95262.40
2022-08-04T09:56:32.758Z,95266.40
2022-08-04T09:59:19.350Z,95266.40
2022-08-04T10:01:59.839Z,95264.00
2022-08-04T10:04:31.553Z,95263.80
2022-08-04T10:07:07.287Z,95264.20
2022-08-04T10:09:58.236Z,95265.00
2022-08-04T10:12:24.853Z,95265.80
2022-08-04T10:15:19.973Z,95265.00
2022-08-04T10:18:34.183Z,95262.00
2022-08-04T10:21:16.539Z,95260.00
2022-08-04T10:24:20.491Z,95256.60
2022-08-04T10:26:58.212Z,95254.20
2022-08-04T10:29:46.690Z,95259.20
2022-08-04T10:32:29.686Z,95258.60
2022-08-04T10:35:14.396Z,95256.00
2022-08-04T10:38:01.417Z,95248.60
2022-08-04T10:40:36.698Z,95252.00
2022-08-04T10:43:22.327Z,95250.20
2022-08-04T10:46:06.738Z,95248.40
2022-08-04T10:49:02.421Z,95246.40
2022-08-04T10:51:58.642Z,95244.40
2022-08-04T10:54:48.328Z,95243.20
2022-08-04T10:57:46.449Z,95243.00
2022-08-04T11:00:26.192Z,95242.60
2022-08-04T11:03:15.717Z,95245.00
2022-08-04T11:05:50.658Z,95235.40
2022-08-04T11:08:26.567Z,95232.20
2022-08-04T11:11:27.073Z,95230.40
2022-08-04T11:14:11.958Z,95228.60
2022-08-04T11:16:58.239Z,95232.40
2022-08-04T11:19:55.805Z,95233.00
2022-08-04T11:22:31.229Z,95233.40
2022-08-04T11:25:21.790Z,95229.80
2022-08-04T11:28:03.908Z,95228.80
2022-08-04T11:30:41.799Z,95227.00
2022-08-04T11:33:23.940Z,95223.00
2022-08-04T11:36:34.730Z,95227.00
2022-08-04T11:39:30.732Z,95228.60
2022-08-04T11:42:07.350Z,95224.80
2022-08-04T11:45:06.310Z,95221.00
2022-08-04T11:47:45.632Z,95225.80
2022-08-04T11:50:24.794Z,95229.00
2022-08-04T11:52:54.005Z,95224.40
2022-08-04T11:55:23.083Z,95227.20
2022-08-04T11:57:53.973Z,95224.40
2022-08-04T12:00:23.053Z,95223.20
2022-08-04T12:02:55.606Z,95214.40
2022-08-04T12:05:36.527Z,95222.20
2022-08-04T12:08:29.775Z,95220.80
2022-08-04T12:11:12.787Z,95223.00
2022-08-04T12:13:50.695Z,95219.80
2022-08-04T12:16:30.225Z,95215.40
2022-08-04T12:19:16.455Z,95210.20
2022-08-04T12:21:53.407Z,95209.60
2022-08-04T12:24:32.075Z,95210.00
2022-08-04T12:27:08.752Z,95206.40
2022-08-04T12:29:37.521Z,95211.20
2022-08-04T12:32:24.427Z,95209.80
2022-08-04T12:35:09.829Z,95208.20
2022-08-04T12:38:06.942Z,95208.40
2022-08-04T12:40:41.343Z,95206.40
2022-08-04T12:43:20.279Z,95201.80
2022-08-04T12:45:53.291Z,95199.60
2022-08-04T12:48:22.935Z,95198.40
2022-08-04T12:50:56.080Z,95197.00
2022-08-04T12:53:32.569Z,95192.40
2022-08-04T12:56:01.729Z,95192.80
2022-08-04T12:58:44.132Z,95194.20
2022-08-04T13:02:09.582Z,95186.20
2022-08-04T13:04:29.306Z,95188.40
2022-08-04T13:07:14.071Z,95188.00
2022-08-04T13:09:41.345Z,95184.00
2022-08-04T13:12:17.633Z,95181.40
2022-08-04T13:14:45.756Z,95178.40
2022-08-04T13:17:12.717Z,95175.40
2022-08-04T13:19:46.829Z,95181.40
2022-08-04T13:22:29.127Z,95181.00
2022-08-04T13:26:40.363Z,95175.20
2022-08-04T13:27:48.232Z,95171.00
2022-08-04T13:30:23.145Z,95173.60
2022-08-04T13:32:56.672Z,95173.60
2022-08-04T13:35:55.970Z,95170.60
2022-08-04T13:38:16.600Z,95169.00
2022-08-04T13:40:44.990Z,95164.40
2022-08-04T13:44:16.431Z,95160.20
2022-08-04T13:46:28.267Z,95156.80
2022-08-04T13:49:28.429Z,95149.00
2022-08-04T13:52:00.164Z,95143.20
2022-08-04T13:54:42.889Z,95141.40
2022-08-04T13:57:23.986Z,95141.20
2022-08-04T13:59:56.390Z,95140.00
2022-08-04T14:02:45.049Z,95141.60
2022-08-04T14:05:27.435Z,95140.80
2022-08-04T14:08:25.220Z,95137.00
2022-08-04T14:10:57.877Z,95138.80
2022-08-04T14:13:41.069Z,95137.60
2022-08-04T14:16:21.432Z,95138.00
2022-08-04T14:18:58.279Z,95132.00
2022-08-04T14:21:25.141Z,95132.40
2022-08-04T14:23:54.117Z,95129.40
2022-08-04T14:26:33.657Z,95130.40
2022-08-04T14:29:27.574Z,95127.80
2022-08-04T14:32:12.553Z,95129.20
2022-08-04T14:34:46.250Z,95127.60
2022-08-04T14:37:20.315Z,95129.40
2022-08-04T14:40:17.680Z,95128.60
2022-08-04T14:42:54.496Z,95123.60
2022-08-04T14:45:54.020Z,95120.40
2022-08-04T14:48:21.909Z,95124.00
2022-08-04T14:50:50.517Z,95115.40
2022-08-04T14:53:22.233Z,95119.20
2022-08-04T14:55:56.365Z,95122.80
2022-08-04T14:58:37.923Z,95119.00
2022-08-04T15:01:10.347Z,95117.00
2022-08-04T15:03:50.630Z,95121.80
2022-08-04T15:06:28.888Z,95120.20
2022-08-04T15:09:03.807Z,95122.80
2022-08-04T15:11:30.758Z,95118.20
2022-08-04T15:13:58.758Z,95117.80
2022-08-04T15:16:32.059Z,95113.60
2022-08-04T15:19:01.011Z,95119.40
2022-08-04T15:21:29.823Z,95115.00
2022-08-04T15:23:58.002Z,95111.00
2022-08-04T15:26:43.705Z,95107.60
2022-08-04T15:29:26.052Z,95109.80
2022-08-04T15:32:06.047Z,95106.60
2022-08-04T15:34:46.327Z,95103.20
2022-08-04T15:37:22.932Z,95105.80
2022-08-04T15:40:04.626Z,95108.00
2022-08-04T15:42:41.476Z,95105.40
2022-08-04T15:45:23.637Z,95097.80
2022-08-04T15:48:13.135Z,95094.80
2022-08-04T15:50:58.551Z,95092.00
2022-08-04T15:54:02.840Z,95089.60
2022-08-04T15:56:30.972Z,95084.40
2022-08-04T15:58:58.702Z,95079.20
2022-08-04T16:01:27.756Z,95077.60
2022-08-04T16:04:00.938Z,95081.20
2022-08-04T16:06:29.680Z,95083.60
2022-08-04T16:09:05.288Z,95076.20
2022-08-04T16:11:40.123Z,95074.80
2022-08-04T16:14:11.201Z,95073.20
2022-08-04T16:16:41.187Z,95070.80
2022-08-04T16:19:22.950Z,95070.40
2022-08-04T16:21:56.242Z,95070.60
2022-08-04T16:24:40.243Z,95071.20
2022-08-04T16:27:12.612Z,95070.80
2022-08-04T16:29:44.806Z,95068.80
2022-08-04T16:32:15.821Z,95068.20
2022-08-04T16:35:04.321Z,95069.00
2022-08-04T16:37:38.476Z,95068.40
2022-08-04T16:40:34.081Z,95065.80
2022-08-04T16:43:19.160Z,95064.20
2022-08-04T16:45:59.235Z,95069.80
2022-08-04T16:48:32.157Z,95072.00
2022-08-04T16:51:06.679Z,95070.60
2022-08-04T16:54:03.172Z,95063.80
2022-08-04T16:56:34.423Z,95062.40
2022-08-04T16:59:10.135Z,95059.40
2022-08-04T17:01:39.147Z,95058.80
2022-08-04T17:04:06.591Z,95054.20
2022-08-04T17:06:42.620Z,95054.00
2022-08-04T17:09:17.042Z,95058.20
2022-08-04T17:11:46.604Z,95058.60
2022-08-04T17:14:14.124Z,95053.80
2022-08-04T17:16:43.087Z,95050.40
2022-08-04T17:19:23.784Z,95054.80
2022-08-04T17:22:05.305Z,95052.40
2022-08-04T17:24:35.282Z,95053.80
2022-08-04T17:27:04.304Z,95051.80
2022-08-04T17:29:49.858Z,95046.20
2022-08-04T17:32:17.165Z,95048.20
2022-08-04T17:34:49.065Z,95046.20
2022-08-04T17:40:25.482Z,95046.20
2022-08-04T17:44:02.868Z,95044.80
2022-08-04T17:46:29.217Z,95042.40
2022-08-04T17:48:59.594Z,95045.20
2022-08-04T17:52:06.822Z,95044.80
2022-08-04T17:54:40.168Z,95044.80
2022-08-04T17:57:21.409Z,95040.60
2022-08-04T18:00:00.315Z,95040.60
2022-08-04T18:02:34.506Z,95041.00
2022-08-04T18:05:11.718Z,95045.80
2022-08-04T18:08:38.462Z,95041.20
2022-08-04T18:10:55.562Z,95044.00
2022-08-04T18:13:27.714Z,95045.80
2022-08-04T18:16:05.276Z,95042.80
2022-08-04T18:18:33.106Z,95040.60
2022-08-04T18:23:51.038Z,95046.40
2022-08-04T18:26:18.143Z,95048.00
2022-08-04T18:28:50.884Z,95049.00
2022-08-04T18:31:17.516Z,95047.60
2022-08-04T18:33:44.214Z,95044.20
2022-08-04T18:36:33.516Z,95046.20
2022-08-04T18:39:12.533Z,95048.80
2022-08-04T18:42:02.214Z,95047.20
2022-08-04T18:44:32.422Z,95051.40
2022-08-04T18:47:22.177Z,95057.00
2022-08-04T18:50:59.727Z,95056.20
2022-08-04T18:52:34.871Z,95063.80
2022-08-04T18:55:02.213Z,95067.40
2022-08-04T18:58:01.142Z,95068.00
2022-08-04T19:00:20.321Z,95066.40
2022-08-04T19:02:47.507Z,95071.20
2022-08-04T19:05:17.050Z,95066.40
2022-08-04T19:08:02.159Z,95073.20
2022-08-04T19:10:31.681Z,95078.60
2022-08-04T19:12:59.440Z,95081.00
2022-08-04T19:15:34.699Z,95078.60
2022-08-04T19:18:06.879Z,95079.80
2022-08-04T19:20:34.305Z,95085.80
2022-08-04T19:24:29.286Z,95088.40
2022-08-04T19:26:02.450Z,95091.40
2022-08-04T19:28:36.267Z,95092.60
2022-08-04T19:31:09.969Z,95093.80
2022-08-04T19:33:58.710Z,95097.00
2022-08-04T19:36:29.587Z,95098.20
2022-08-04T19:39:00.202Z,95096.80
2022-08-04T19:41:31.152Z,95105.60
2022-08-04T19:43:58.161Z,95104.80
2022-08-04T19:46:28.510Z,95108.00
2022-08-04T19:48:58.929Z,95111.00
2022-08-04T19:51:30.310Z,95108.40
2022-08-04T19:54:04.343Z,95104.60
2022-08-04T19:56:41.843Z,95109.40
2022-08-04T19:59:10.348Z,95109.00
2022-08-04T20:01:44.217Z,95107.20
2022-08-04T20:04:14.423Z,95109.00
2022-08-04T20:06:42.635Z,95107.40
2022-08-04T20:09:25.499Z,95111.00
2022-08-04T20:11:58.142Z,95106.40
2022-08-04T20:14:31.607Z,95108.80
2022-08-04T20:17:10.431Z,95108.40
2022-08-04T20:19:38.952Z,95112.40
2022-08-04T20:22:08.564Z,95112.60
2022-08-04T20:25:00.929Z,95109.40
2022-08-04T20:28:00.054Z,95113.60
2022-08-04T20:30:29.963Z,95113.40
2022-08-04T20:32:58.316Z,95112.40
2022-08-04T20:35:27.111Z,95112.80
2022-08-04T20:38:00.148Z,95106.00
2022-08-04T20:40:27.596Z,95106.80
2022-08-04T20:42:54.188Z,95106.40
2022-08-04T20:45:24.100Z,95105.20
2022-08-04T20:48:10.708Z,95103.00
2022-08-04T20:50:37.501Z,95100.40
2022-08-04T20:53:16.291Z,95101.80
2022-08-04T20:55:55.794Z,95107.00
2022-08-04T20:58:27.522Z,95102.00
2022-08-04T21:00:56.133Z,95107.20
2022-08-04T21:03:49.596Z,95104.80
2022-08-04T21:06:10.808Z,95105.00
2022-08-04T21:08:37.728Z,95105.20
2022-08-04T21:11:06.818Z,95102.40
2022-08-04T21:13:52.432Z,95102.60
2022-08-04T21:16:55.744Z,95103.40
2022-08-04T21:19:13.035Z,95103.60
2022-08-04T21:21:41.612Z,95102.80
2022-08-04T21:24:09.515Z,95100.00
2022-08-04T21:26:37.501Z,95097.80
2022-08-04T21:29:04.841Z,95103.00
2022-08-04T21:31:42.367Z,95106.00
2022-08-04T21:34:39.711Z,95103.40
2022-08-04T21:37:04.637Z,95104.00
2022-08-04T21:39:32.740Z,95097.80
2022-08-04T21:42:27.769Z,95097.00
2022-08-04T21:44:57.153Z,95099.80
2022-08-04T21:50:10.505Z,95100.60
2022-08-04T21:52:37.187Z,95097.60
2022-08-04T21:55:04.119Z,95097.60
2022-08-04T21:57:30.767Z,95099.60
2022-08-04T21:59:59.097Z,95103.20
2022-08-04T22:02:26.943Z,95097.60
2022-08-04T22:04:54.299Z,95101.80
2022-08-04T22:07:23.127Z,95102.40
2022-08-04T22:10:00.566Z,95100.80
2022-08-04T22:12:31.101Z,95106.40
2022-08-04T22:15:00.963Z,95107.40
2022-08-04T22:17:35.135Z,95107.60
2022-08-04T22:20:04.400Z,95107.20
2022-08-04T22:22:35.741Z,95107.60
2022-08-04T22:25:13.418Z,95100.00
2022-08-04T22:28:02.561Z,95097.40
2022-08-04T22:30:37.618Z,95088.20
2022-08-04T22:33:08.711Z,95088.40
2022-08-04T22:35:49.045Z,95090.20
2022-08-04T22:38:24.421Z,95089.00
2022-08-04T22:41:02.012Z,95090.00
2022-08-04T22:43:33.648Z,95092.40
2022-08-04T22:46:05.055Z,95095.40
2022-08-04T22:48:38.532Z,95090.40
2022-08-04T22:51:07.480Z,95092.80
2022-08-04T22:53:35.465Z,95094.20
2022-08-04T22:56:09.988Z,95091.00
2022-08-04T22:58:45.549Z,95093.60
2022-08-04T23:01:17.522Z,95097.40
2022-08-04T23:03:50.940Z,95097.40
2022-08-04T23:06:24.448Z,95101.20
2022-08-04T23:08:52.574Z,95100.40
2022-08-04T23:11:19.487Z,95100.80
2022-08-04T23:13:47.320Z,95097.00
2022-08-04T23:16:17.795Z,95096.20
2022-08-04T23:18:48.362Z,95092.80
2022-08-04T23:21:17.477Z,95091.80
2022-08-04T23:24:01.007Z,95089.60
2022-08-04T23:26:30.573Z,95090.00
2022-08-04T23:28:57.979Z,95086.80
2022-08-04T23:31:25.394Z,95086.00
2022-08-04T23:34:08.449Z,95085.20
2022-08-04T23:36:35.524Z,95083.20
2022-08-04T23:39:05.711Z,95083.80
2022-08-04T23:41:54.367Z,95081.60
2022-08-04T23:44:25.221Z,95076.60
2022-08-04T23:47:04.586Z,95071.40
2022-08-04T23:49:40.750Z,95071.40
2022-08-04T23:52:23.602Z,95074.20
2022-08-04T23:54:59.208Z,95071.40
2022-08-04T23:58:05.161Z,95072.20
